createdAt,value
2023-03-28T00:02:22.757Z,8.80
2023-03-28T00:05:07.852Z,9.33
2023-03-28T00:07:54.096Z,8.67
2023-03-28T00:10:38.276Z,10.00
2023-03-28T00:13:23.417Z,9.63
2023-03-28T00:16:10.596Z,9.20
2023-03-28T00:18:54.832Z,8.40
2023-03-28T00:21:41.606Z,7.77
2023-03-28T00:24:28.195Z,7.97
2023-03-28T00:27:12.116Z,8.37
2023-03-28T00:29:56.089Z,6.33
2023-03-28T00:32:40.091Z,8.07
2023-03-28T00:35:24.252Z,7.43
2023-03-28T00:38:08.588Z,7.27
2023-03-28T00:40:56.285Z,7.00
2023-03-28T00:43:42.960Z,7.67
2023-03-28T00:46:33.032Z,7.23
2023-03-28T00:49:21.460Z,7.70
2023-03-28T00:52:06.411Z,7.80
2023-03-28T00:54:50.519Z,9.87
2023-03-28T00:57:38.362Z,7.73
2023-03-28T01:00:23.044Z,7.37
2023-03-28T01:03:08.091Z,8.03
2023-03-28T01:05:52.566Z,8.13
2023-03-28T01:08:40.438Z,8.03
2023-03-28T01:11:26.526Z,8.00
2023-03-28T01:14:15.433Z,7.23
2023-03-28T01:16:59.416Z,7.43
2023-03-28T01:20:00.010Z,8.27
2023-03-28T01:23:31.486Z,7.40
2023-03-28T01:26:46.575Z,9.00
2023-03-28T01:30:14.680Z,8.77
2023-03-28T01:33:41.614Z,8.47
2023-03-28T01:37:07.327Z,9.40
2023-03-28T01:40:26.324Z,9.10
2023-03-28T01:43:30.441Z,8.33
2023-03-28T01:46:19.014Z,9.17
2023-03-28T01:49:10.161Z,7.97
2023-03-28T01:51:59.653Z,7.93
2023-03-28T01:54:53.328Z,8.43
2023-03-28T01:57:46.191Z,8.57
2023-03-28T02:00:35.184Z,8.17
2023-03-28T02:03:29.415Z,9.00
2023-03-28T02:06:32.568Z,8.07
2023-03-28T02:09:24.055Z,8.43
2023-03-28T02:12:36.345Z,9.13
2023-03-28T02:15:28.175Z,9.07
2023-03-28T02:18:37.094Z,9.20
2023-03-28T02:22:05.761Z,9.57
2023-03-28T02:24:52.016Z,8.60
2023-03-28T02:28:13.996Z,9.00
2023-03-28T02:31:18.157Z,8.70
2023-03-28T02:34:03.233Z,9.37
2023-03-28T02:36:54.492Z,10.13
2023-03-28T02:39:52.107Z,9.47
2023-03-28T02:43:10.735Z,10.83
2023-03-28T02:46:18.804Z,9.70
2023-03-28T02:49:47.270Z,9.57
2023-03-28T02:52:52.378Z,8.70
2023-03-28T02:55:44.710Z,7.90
2023-03-28T02:58:40.288Z,8.47
2023-03-28T03:01:29.609Z,9.40
2023-03-28T03:04:17.407Z,7.47
2023-03-28T03:07:02.743Z,9.20
2023-03-28T03:09:54.010Z,6.43
2023-03-28T03:12:38.920Z,7.30
2023-03-28T03:15:22.867Z,6.73
2023-03-28T03:18:16.985Z,5.90
2023-03-28T03:21:01.848Z,6.23
2023-03-28T03:23:45.901Z,5.60
2023-03-28T03:26:31.154Z,5.47
2023-03-28T03:29:19.975Z,4.23
2023-03-28T03:32:03.859Z,4.50
2023-03-28T03:34:58.935Z,4.47
2023-03-28T03:37:42.847Z,4.40
2023-03-28T03:40:27.229Z,7.53
2023-03-28T03:43:11.632Z,3.13
2023-03-28T03:45:58.039Z,2.90
2023-03-28T03:48:50.003Z,2.80
2023-03-28T03:51:35.967Z,4.80
2023-03-28T03:54:20.048Z,3.97
2023-03-28T03:57:04.262Z,5.67
2023-03-28T03:59:48.689Z,2.93
2023-03-28T04:02:34.732Z,4.57
2023-03-28T04:05:19.507Z,3.23
2023-03-28T04:08:17.855Z,2.83
2023-03-28T04:11:01.858Z,6.20
2023-03-28T04:13:51.597Z,8.07
2023-03-28T04:16:40.763Z,2.60
2023-03-28T04:19:27.560Z,2.30
2023-03-28T04:22:13.166Z,8.17
2023-03-28T04:25:05.307Z,2.53
2023-03-28T04:27:54.833Z,2.50
2023-03-28T04:30:41.777Z,3.47
2023-03-28T04:33:46.650Z,2.73
2023-03-28T04:36:34.050Z,2.50
2023-03-28T04:39:22.099Z,2.83
2023-03-28T04:42:27.314Z,2.77
2023-03-28T04:45:34.121Z,2.57
2023-03-28T04:48:29.218Z,4.33
2023-03-28T04:51:13.229Z,3.10
2023-03-28T04:53:57.975Z,2.57
2023-03-28T04:57:00.637Z,3.83
2023-03-28T04:59:56.284Z,4.40
2023-03-28T05:03:01.346Z,4.20
2023-03-28T05:05:51.361Z,2.90
2023-03-28T05:08:35.572Z,2.47
2023-03-28T05:11:19.618Z,3.40
2023-03-28T05:14:03.564Z,4.23
2023-03-28T05:16:56.131Z,3.63
2023-03-28T05:20:11.228Z,3.57
2023-03-28T05:23:07.595Z,3.07
2023-03-28T05:25:56.204Z,6.83
2023-03-28T05:28:40.619Z,3.50
2023-03-28T05:31:26.165Z,3.77
2023-03-28T05:34:25.553Z,3.13
2023-03-28T05:37:09.536Z,3.93
2023-03-28T05:40:06.680Z,3.27
2023-03-28T05:42:52.969Z,4.83
2023-03-28T05:45:38.113Z,3.20
2023-03-28T05:48:29.303Z,3.60
2023-03-28T05:51:15.321Z,3.40
2023-03-28T05:53:59.333Z,4.03
2023-03-28T05:56:43.318Z,3.43
2023-03-28T05:59:27.616Z,3.80
2023-03-28T06:02:13.483Z,10.03
2023-03-28T06:04:58.817Z,5.07
2023-03-28T06:07:45.305Z,3.63
2023-03-28T06:10:32.242Z,3.07
2023-03-28T06:13:32.347Z,6.23
2023-03-28T06:16:16.573Z,3.90
2023-03-28T06:19:14.393Z,4.70
2023-03-28T06:22:06.296Z,5.03
2023-03-28T06:24:51.948Z,4.27
2023-03-28T06:27:42.756Z,3.57
2023-03-28T06:30:27.158Z,3.87
2023-03-28T06:33:12.023Z,3.23
2023-03-28T06:35:56.495Z,4.67
2023-03-28T06:38:41.325Z,4.20
2023-03-28T06:41:26.922Z,7.17
2023-03-28T06:44:11.337Z,4.73
2023-03-28T06:47:24.417Z,4.87
2023-03-28T06:50:10.372Z,3.13
2023-03-28T06:53:01.392Z,3.60
2023-03-28T06:55:45.703Z,4.53
2023-03-28T06:58:31.186Z,4.07
2023-03-28T07:01:24.250Z,3.63
2023-03-28T07:04:13.382Z,3.23
2023-03-28T07:07:02.413Z,3.37
2023-03-28T07:09:48.989Z,4.10
2023-03-28T07:12:32.976Z,4.13
2023-03-28T07:15:19.489Z,3.63
2023-03-28T07:18:05.554Z,3.13
2023-03-28T07:20:58.103Z,3.07
2023-03-28T07:23:48.372Z,3.90
2023-03-28T07:26:36.761Z,3.30
2023-03-28T07:29:20.682Z,3.43
2023-03-28T07:32:07.144Z,3.30
2023-03-28T07:34:51.188Z,3.40
2023-03-28T07:37:38.667Z,3.77
2023-03-28T07:40:48.876Z,3.97
2023-03-28T07:43:33.110Z,3.13
2023-03-28T07:46:17.459Z,4.90
2023-03-28T07:49:02.972Z,10.83
2023-03-28T07:51:48.074Z,5.07
2023-03-28T07:54:33.399Z,3.57
2023-03-28T07:57:18.119Z,3.37
2023-03-28T08:00:13.164Z,4.00
2023-03-28T08:02:59.318Z,3.13
2023-03-28T08:05:51.632Z,5.40
2023-03-28T08:08:38.069Z,3.43
2023-03-28T08:11:43.677Z,4.50
2023-03-28T08:14:27.680Z,7.47
2023-03-28T08:17:12.736Z,4.77
2023-03-28T08:19:56.845Z,3.30
2023-03-28T08:22:48.804Z,2.83
2023-03-28T08:26:05.157Z,3.30
2023-03-28T08:28:49.449Z,4.00
2023-03-28T08:31:33.743Z,3.67
2023-03-28T08:34:26.450Z,3.43
2023-03-28T08:37:13.766Z,7.10
2023-03-28T08:40:01.859Z,3.90
2023-03-28T08:43:08.279Z,4.00
2023-03-28T08:45:54.907Z,3.87
2023-03-28T08:48:42.831Z,3.17
2023-03-28T08:51:31.596Z,3.43
2023-03-28T08:54:21.339Z,3.17
2023-03-28T08:57:11.784Z,3.07
2023-03-28T09:00:08.892Z,3.40
2023-03-28T09:02:53.231Z,4.10
2023-03-28T09:05:48.211Z,3.97
2023-03-28T09:08:59.500Z,2.80
2023-03-28T09:11:57.749Z,4.13
2023-03-28T09:15:16.284Z,2.67
2023-03-28T09:18:42.656Z,3.50
2023-03-28T09:21:34.750Z,4.00
2023-03-28T09:24:43.086Z,2.83
2023-03-28T09:27:37.762Z,4.13
2023-03-28T09:30:31.237Z,2.80
2023-03-28T09:33:21.300Z,2.73
2023-03-28T09:36:12.317Z,2.67
2023-03-28T09:39:00.218Z,2.73
2023-03-28T09:41:53.846Z,5.60
2023-03-28T09:45:09.234Z,4.67
2023-03-28T09:48:20.618Z,2.77
2023-03-28T09:51:07.496Z,3.60
2023-03-28T09:53:51.448Z,2.97
2023-03-28T09:56:39.603Z,3.43
2023-03-28T09:59:37.086Z,4.07
2023-03-28T10:02:29.225Z,5.07
2023-03-28T10:05:34.623Z,3.93
2023-03-28T10:08:29.699Z,3.83
2023-03-28T10:11:22.892Z,3.83
2023-03-28T10:14:07.100Z,4.37
2023-03-28T10:16:53.085Z,5.63
2023-03-28T10:19:50.204Z,4.00
2023-03-28T10:22:40.576Z,3.70
2023-03-28T10:25:37.200Z,5.43
2023-03-28T10:28:29.627Z,3.87
2023-03-28T10:31:29.069Z,3.23
2023-03-28T10:34:28.611Z,2.80
2023-03-28T10:37:31.984Z,5.47
2023-03-28T10:40:44.161Z,3.03
2023-03-28T10:43:49.696Z,3.43
2023-03-28T10:46:47.199Z,4.07
2023-03-28T10:49:44.106Z,7.20
2023-03-28T10:52:36.624Z,4.47
2023-03-28T10:55:27.546Z,4.47
2023-03-28T10:58:42.374Z,2.97
2023-03-28T11:01:47.535Z,3.43
2023-03-28T11:04:55.224Z,3.57
2023-03-28T11:07:50.792Z,3.27
2023-03-28T11:10:50.862Z,3.20
2023-03-28T11:13:50.916Z,4.00
2023-03-28T11:16:49.842Z,5.73
2023-03-28T11:20:24.824Z,4.17
2023-03-28T11:23:44.984Z,5.73
2023-03-28T11:27:14.750Z,5.33
2023-03-28T11:30:21.306Z,4.07
2023-03-28T11:33:31.053Z,3.10
2023-03-28T11:36:24.434Z,6.33
2023-03-28T11:39:16.787Z,4.10
2023-03-28T11:42:07.410Z,5.37
2023-03-28T11:45:07.063Z,3.67
2023-03-28T11:48:05.544Z,3.70
2023-03-28T11:51:03.125Z,4.60
2023-03-28T11:54:00.448Z,4.10
2023-03-28T11:56:55.724Z,3.83
2023-03-28T12:00:06.698Z,5.27
2023-03-28T12:03:13.402Z,4.80
2023-03-28T12:06:08.995Z,5.00
2023-03-28T12:09:01.545Z,3.30
2023-03-28T12:11:57.642Z,4.27
2023-03-28T12:14:52.240Z,4.40
2023-03-28T12:17:50.561Z,4.87
2023-03-28T12:20:40.311Z,4.63
2023-03-28T12:23:39.624Z,4.97
2023-03-28T12:27:06.029Z,4.53
2023-03-28T12:29:57.316Z,4.80
2023-03-28T12:32:48.527Z,3.90
2023-03-28T12:35:48.547Z,5.00
2023-03-28T12:38:41.724Z,7.60
2023-03-28T12:41:41.924Z,4.80
2023-03-28T12:44:30.227Z,7.43
2023-03-28T12:47:20.156Z,6.90
2023-03-28T12:50:09.328Z,5.23
2023-03-28T12:52:59.156Z,5.63
2023-03-28T12:55:56.480Z,4.60
2023-03-28T12:58:41.476Z,6.17
2023-03-28T13:01:44.630Z,4.67
2023-03-28T13:05:07.147Z,4.20
2023-03-28T13:08:05.789Z,5.57
2023-03-28T13:11:06.796Z,4.73
2023-03-28T13:13:59.245Z,4.50
2023-03-28T13:16:47.846Z,4.90
2023-03-28T13:19:48.792Z,11.83
2023-03-28T13:22:35.128Z,18.17
2023-03-28T13:25:27.486Z,37.13
2023-03-28T13:28:32.520Z,18.33
2023-03-28T13:31:24.814Z,5.93
2023-03-28T13:34:22.888Z,4.03
2023-03-28T13:37:23.153Z,4.30
2023-03-28T13:40:51.374Z,4.60
2023-03-28T13:43:43.805Z,4.03
2023-03-28T13:46:32.500Z,4.50
2023-03-28T13:49:19.809Z,3.93
2023-03-28T13:52:08.525Z,3.47
2023-03-28T13:54:55.205Z,3.47
2023-03-28T13:57:40.948Z,4.50
2023-03-28T14:00:44.790Z,4.43
2023-03-28T14:03:28.943Z,4.87
2023-03-28T14:06:15.788Z,3.90
2023-03-28T14:09:02.728Z,4.13
2023-03-28T14:11:47.390Z,4.27
2023-03-28T14:14:34.334Z,5.87
2023-03-28T14:17:23.368Z,5.30
2023-03-28T14:20:08.856Z,8.00
2023-03-28T14:23:00.266Z,6.07
2023-03-28T14:25:45.247Z,7.00
2023-03-28T14:28:30.800Z,6.10
2023-03-28T14:31:15.970Z,4.37
2023-03-28T14:34:05.377Z,5.00
2023-03-28T14:36:59.019Z,6.07
2023-03-28T14:39:43.469Z,3.53
2023-03-28T14:42:32.136Z,3.23
2023-03-28T14:45:16.148Z,3.47
2023-03-28T14:48:00.125Z,4.67
2023-03-28T14:50:47.716Z,2.53
2023-03-28T14:53:37.810Z,3.57
2023-03-28T14:56:25.815Z,4.03
2023-03-28T14:59:12.955Z,5.67
2023-03-28T15:01:57.332Z,6.97
2023-03-28T15:04:41.271Z,9.83
2023-03-28T15:07:29.423Z,7.97
2023-03-28T15:10:22.408Z,6.77
2023-03-28T15:13:09.306Z,7.37
2023-03-28T15:15:57.104Z,27.37
2023-03-28T15:18:47.159Z,34.17
2023-03-28T15:21:31.060Z,6.73
2023-03-28T15:24:19.917Z,7.30
2023-03-28T15:27:04.521Z,17.20
2023-03-28T15:29:48.386Z,9.87
2023-03-28T15:32:32.226Z,14.40
2023-03-28T15:35:29.297Z,10.80
2023-03-28T15:38:20.523Z,7.67
2023-03-28T15:41:19.330Z,10.73
2023-03-28T15:44:13.364Z,9.57
2023-03-28T15:47:00.930Z,8.30
2023-03-28T15:49:45.530Z,11.50
2023-03-28T15:52:29.799Z,10.87
2023-03-28T15:55:21.271Z,8.23
2023-03-28T15:58:07.228Z,24.37
2023-03-28T16:00:52.881Z,11.67
2023-03-28T16:03:37.014Z,8.90
2023-03-28T16:06:31.841Z,12.90
2023-03-28T16:09:20.011Z,13.53
2023-03-28T16:12:05.234Z,4.93
2023-03-28T16:15:11.945Z,4.97
2023-03-28T16:18:09.256Z,5.67
2023-03-28T16:21:04.463Z,14.23
2023-03-28T16:23:48.684Z,17.67
2023-03-28T16:26:32.516Z,15.23
2023-03-28T16:29:16.848Z,4.53
2023-03-28T16:32:02.220Z,17.67
2023-03-28T16:34:46.193Z,29.60
2023-03-28T16:37:30.041Z,14.63
2023-03-28T16:40:14.419Z,10.27
2023-03-28T16:42:58.634Z,12.63
2023-03-28T16:45:42.636Z,10.53
2023-03-28T16:48:27.974Z,12.53
2023-03-28T16:51:11.756Z,14.33
2023-03-28T16:53:56.174Z,13.47
2023-03-28T16:56:40.024Z,10.87
2023-03-28T16:59:24.011Z,10.50
2023-03-28T17:02:09.162Z,7.27
2023-03-28T17:04:54.326Z,11.77
2023-03-28T17:07:38.135Z,4.80
2023-03-28T17:10:21.969Z,4.80
2023-03-28T17:13:05.844Z,8.87
2023-03-28T17:15:51.298Z,7.13
2023-03-28T17:18:36.684Z,5.57
2023-03-28T17:21:21.924Z,4.03
2023-03-28T17:24:09.250Z,4.63
2023-03-28T17:26:53.109Z,5.97
2023-03-28T17:29:37.032Z,5.70
2023-03-28T17:32:20.948Z,3.30
2023-03-28T17:35:05.211Z,5.10
2023-03-28T17:37:52.711Z,5.93
2023-03-28T17:40:39.516Z,3.90
2023-03-28T17:43:23.448Z,3.10
2023-03-28T17:46:07.369Z,3.33
2023-03-28T17:48:51.374Z,4.40
2023-03-28T17:51:35.324Z,4.13
2023-03-28T17:54:20.498Z,4.97
2023-03-28T17:57:05.033Z,3.73
2023-03-28T17:59:48.988Z,7.30
2023-03-28T18:02:32.764Z,4.80
2023-03-28T18:05:29.080Z,3.60
2023-03-28T18:08:13.536Z,4.20
2023-03-28T18:11:02.514Z,5.23
2023-03-28T18:13:46.802Z,5.03
2023-03-28T18:16:30.869Z,4.03
2023-03-28T18:19:18.344Z,4.17
2023-03-28T18:22:02.589Z,5.13
2023-03-28T18:24:46.581Z,6.37
2023-03-28T18:27:32.060Z,5.40
2023-03-28T18:30:16.002Z,4.23
2023-03-28T18:33:00.205Z,3.43
2023-03-28T18:35:44.264Z,4.27
2023-03-28T18:38:28.227Z,4.53
2023-03-28T18:41:13.158Z,3.83
2023-03-28T18:43:58.418Z,4.73
2023-03-28T18:46:42.336Z,5.43
2023-03-28T18:49:27.129Z,4.73
2023-03-28T18:52:11.031Z,5.80
2023-03-28T18:54:55.338Z,7.10
2023-03-28T18:57:40.522Z,4.83
2023-03-28T19:00:26.478Z,3.77
2023-03-28T19:03:11.086Z,4.40
2023-03-28T19:05:58.436Z,3.70
2023-03-28T19:08:42.848Z,5.60
2023-03-28T19:11:28.345Z,6.47
2023-03-28T19:14:12.723Z,9.20
2023-03-28T19:16:58.226Z,7.67
2023-03-28T19:19:42.333Z,6.90
2023-03-28T19:22:26.193Z,6.23
2023-03-28T19:25:11.257Z,4.97
2023-03-28T19:27:56.369Z,4.87
2023-03-28T19:30:40.382Z,6.97
2023-03-28T19:33:25.709Z,4.77
2023-03-28T19:36:10.234Z,6.53
2023-03-28T19:38:54.220Z,5.80
2023-03-28T19:41:38.077Z,7.93
2023-03-28T19:44:21.835Z,6.20
2023-03-28T19:47:07.086Z,5.47
2023-03-28T19:49:52.589Z,4.67
2023-03-28T19:52:38.264Z,3.77
2023-03-28T19:55:22.316Z,4.23
2023-03-28T19:58:07.548Z,4.53
2023-03-28T20:00:51.557Z,4.67
2023-03-28T20:03:35.510Z,4.20
2023-03-28T20:06:22.074Z,3.47
2023-03-28T20:09:06.199Z,3.90
2023-03-28T20:11:50.057Z,4.10
2023-03-28T20:14:33.860Z,5.50
2023-03-28T20:17:18.375Z,5.37
2023-03-28T20:20:02.179Z,3.33
2023-03-28T20:22:47.847Z,3.23
2023-03-28T20:25:33.132Z,5.03
2023-03-28T20:28:17.272Z,2.93
2023-03-28T20:31:01.214Z,4.53
2023-03-28T20:33:45.349Z,2.20
2023-03-28T20:36:29.084Z,2.80
2023-03-28T20:39:15.071Z,3.13
2023-03-28T20:42:03.039Z,2.80
2023-03-28T20:44:47.263Z,3.50
2023-03-28T20:47:31.036Z,3.23
2023-03-28T20:50:14.835Z,2.93
2023-03-28T20:52:58.536Z,3.30
2023-03-28T20:55:43.914Z,3.70
2023-03-28T20:58:28.484Z,3.80
2023-03-28T21:01:14.115Z,3.40
2023-03-28T21:04:00.549Z,4.10
2023-03-28T21:06:45.132Z,5.37
2023-03-28T21:09:29.676Z,4.67
2023-03-28T21:12:14.892Z,4.60
2023-03-28T21:14:58.553Z,3.93
2023-03-28T21:17:42.805Z,5.20
2023-03-28T21:20:27.368Z,4.30
2023-03-28T21:23:12.228Z,4.30
2023-03-28T21:25:56.481Z,4.33
2023-03-28T21:28:42.064Z,4.33
2023-03-28T21:31:28.113Z,4.07
2023-03-28T21:34:12.207Z,3.53
2023-03-28T21:36:55.917Z,4.77
2023-03-28T21:39:40.063Z,3.37
2023-03-28T21:42:24.165Z,3.47
2023-03-28T21:45:11.723Z,4.10
2023-03-28T21:47:55.583Z,3.77
2023-03-28T21:50:40.766Z,2.40
2023-03-28T21:53:24.646Z,2.47
2023-03-28T21:56:11.541Z,2.33
2023-03-28T21:58:55.316Z,3.73
2023-03-28T22:01:40.472Z,2.50
2023-03-28T22:04:24.271Z,2.67
2023-03-28T22:07:08.155Z,2.20
2023-03-28T22:09:51.807Z,2.30
2023-03-28T22:12:35.584Z,2.50
2023-03-28T22:15:19.426Z,2.30
2023-03-28T22:18:09.239Z,3.07
2023-03-28T22:20:54.064Z,2.73
2023-03-28T22:23:37.911Z,2.97
2023-03-28T22:26:21.746Z,2.10
2023-03-28T22:29:06.149Z,2.03
2023-03-28T22:31:50.063Z,2.27
2023-03-28T22:34:36.308Z,2.70
2023-03-28T22:37:20.097Z,3.10
2023-03-28T22:40:05.419Z,2.83
2023-03-28T22:42:49.482Z,3.60
2023-03-28T22:45:34.106Z,3.23
2023-03-28T22:48:20.343Z,4.27
2023-03-28T22:51:11.895Z,3.77
2023-03-28T22:54:00.455Z,3.10
2023-03-28T22:56:46.072Z,2.70
2023-03-28T22:59:30.152Z,4.03
2023-03-28T23:02:14.231Z,3.13
2023-03-28T23:04:58.703Z,3.10
2023-03-28T23:07:44.758Z,4.13
2023-03-28T23:10:28.960Z,4.00
2023-03-28T23:13:12.645Z,3.03
2023-03-28T23:15:56.427Z,3.30
2023-03-28T23:18:40.143Z,2.97
2023-03-28T23:21:24.681Z,2.60
2023-03-28T23:24:11.289Z,3.10
2023-03-28T23:26:55.239Z,2.70
2023-03-28T23:29:38.988Z,2.73
2023-03-28T23:32:22.823Z,3.17
2023-03-28T23:35:08.204Z,3.20
2023-03-28T23:37:53.344Z,2.40
2023-03-28T23:40:38.510Z,2.43
2023-03-28T23:43:22.352Z,2.70
2023-03-28T23:46:07.837Z,2.50
2023-03-28T23:48:52.012Z,5.50
2023-03-28T23:51:35.809Z,4.23
2023-03-28T23:54:19.679Z,3.47
2023-03-28T23:57:05.823Z,5.30
2023-03-28T23:59:49.631Z,3.50
